sensor_id;sensor_type;location;lat;lon;timestamp;P1;durP1;ratioP1;P2;durP2;ratioP2
5882;SDS011;2967;51.488;6.618;2023-02-03T00:03:31;18.83;;;13.33;;
5882;SDS011;2967;51.488;6.618;2023-02-03T00:08:34;18.40;;;11.80;;
5882;SDS011;2967;51.488;6.618;2023-02-03T00:13:37;19.93;;;11.40;;
5882;SDS011;2967;51.488;6.618;2023-02-03T00:18:41;22.63;;;11.70;;
5882;SDS011;2967;51.488;6.618;2023-02-03T00:23:43;18.33;;;11.00;;
5882;SDS011;2967;51.488;6.618;2023-02-03T00:28:46;22.37;;;12.40;;
5882;SDS011;2967;51.488;6.618;2023-02-03T00:33:53;16.77;;;12.20;;
5882;SDS011;2967;51.488;6.618;2023-02-03T00:38:58;15.97;;;13.17;;
5882;SDS011;2967;51.488;6.618;2023-02-03T00:44:01;22.73;;;11.77;;
5882;SDS011;2967;51.488;6.618;2023-02-03T00:49:05;19.07;;;13.00;;
5882;SDS011;2967;51.488;6.618;2023-02-03T00:54:08;22.83;;;13.93;;
5882;SDS011;2967;51.488;6.618;2023-02-03T00:59:11;17.60;;;13.10;;
5882;SDS011;2967;51.488;6.618;2023-02-03T01:04:15;28.73;;;13.70;;
5882;SDS011;2967;51.488;6.618;2023-02-03T01:09:18;19.37;;;13.70;;
5882;SDS011;2967;51.488;6.618;2023-02-03T01:14:20;22.90;;;12.80;;
5882;SDS011;2967;51.488;6.618;2023-02-03T01:19:24;15.87;;;12.37;;
5882;SDS011;2967;51.488;6.618;2023-02-03T01:24:28;17.83;;;13.10;;
5882;SDS011;2967;51.488;6.618;2023-02-03T01:29:30;18.57;;;13.20;;
5882;SDS011;2967;51.488;6.618;2023-02-03T01:34:34;14.70;;;11.67;;
5882;SDS011;2967;51.488;6.618;2023-02-03T01:39:37;14.93;;;10.57;;
5882;SDS011;2967;51.488;6.618;2023-02-03T01:44:41;18.53;;;11.47;;
5882;SDS011;2967;51.488;6.618;2023-02-03T01:49:48;16.63;;;10.33;;
5882;SDS011;2967;51.488;6.618;2023-02-03T01:54:54;20.80;;;11.60;;
5882;SDS011;2967;51.488;6.618;2023-02-03T02:00:00;14.37;;;9.33;;
5882;SDS011;2967;51.488;6.618;2023-02-03T02:05:35;19.87;;;11.07;;
5882;SDS011;2967;51.488;6.618;2023-02-03T02:10:43;18.57;;;10.40;;
5882;SDS011;2967;51.488;6.618;2023-02-03T02:15:49;12.20;;;9.53;;
5882;SDS011;2967;51.488;6.618;2023-02-03T02:21:08;16.63;;;9.60;;
5882;SDS011;2967;51.488;6.618;2023-02-03T02:26:33;17.60;;;8.80;;
5882;SDS011;2967;51.488;6.618;2023-02-03T02:37:21;18.00;;;9.80;;
5882;SDS011;2967;51.488;6.618;2023-02-03T02:48:56;16.00;;;7.83;;
5882;SDS011;2967;51.488;6.618;2023-02-03T02:54:04;12.40;;;7.90;;
5882;SDS011;2967;51.488;6.618;2023-02-03T02:59:10;14.80;;;7.00;;
5882;SDS011;2967;51.488;6.618;2023-02-03T03:04:17;10.47;;;6.90;;
5882;SDS011;2967;51.488;6.618;2023-02-03T03:09:24;11.70;;;5.93;;
5882;SDS011;2967;51.488;6.618;2023-02-03T03:14:36;12.83;;;5.23;;
5882;SDS011;2967;51.488;6.618;2023-02-03T03:19:45;13.47;;;5.33;;
5882;SDS011;2967;51.488;6.618;2023-02-03T03:24:54;10.00;;;5.00;;
5882;SDS011;2967;51.488;6.618;2023-02-03T03:30:02;9.23;;;4.73;;
5882;SDS011;2967;51.488;6.618;2023-02-03T03:35:10;13.07;;;5.30;;
5882;SDS011;2967;51.488;6.618;2023-02-03T03:40:16;11.73;;;4.40;;
5882;SDS011;2967;51.488;6.618;2023-02-03T03:45:24;8.97;;;4.43;;
5882;SDS011;2967;51.488;6.618;2023-02-03T03:50:34;11.83;;;5.10;;
5882;SDS011;2967;51.488;6.618;2023-02-03T03:55:40;7.80;;;3.50;;
5882;SDS011;2967;51.488;6.618;2023-02-03T04:00:48;14.73;;;4.07;;
5882;SDS011;2967;51.488;6.618;2023-02-03T04:05:53;14.73;;;4.20;;
5882;SDS011;2967;51.488;6.618;2023-02-03T04:10:56;11.77;;;4.53;;
5882;SDS011;2967;51.488;6.618;2023-02-03T04:15:58;10.83;;;4.97;;
5882;SDS011;2967;51.488;6.618;2023-02-03T04:21:02;13.67;;;3.93;;
5882;SDS011;2967;51.488;6.618;2023-02-03T04:26:05;9.77;;;4.60;;
5882;SDS011;2967;51.488;6.618;2023-02-03T04:31:08;10.53;;;4.53;;
5882;SDS011;2967;51.488;6.618;2023-02-03T04:36:12;6.43;;;4.13;;
5882;SDS011;2967;51.488;6.618;2023-02-03T04:41:16;8.27;;;4.13;;
5882;SDS011;2967;51.488;6.618;2023-02-03T04:46:19;13.97;;;7.20;;
5882;SDS011;2967;51.488;6.618;2023-02-03T04:51:23;11.10;;;4.20;;
5882;SDS011;2967;51.488;6.618;2023-02-03T04:56:26;7.50;;;3.30;;
5882;SDS011;2967;51.488;6.618;2023-02-03T05:01:29;7.93;;;3.90;;
5882;SDS011;2967;51.488;6.618;2023-02-03T05:06:33;7.87;;;4.63;;
5882;SDS011;2967;51.488;6.618;2023-02-03T05:11:36;5.43;;;3.50;;
5882;SDS011;2967;51.488;6.618;2023-02-03T05:16:39;6.70;;;3.70;;
5882;SDS011;2967;51.488;6.618;2023-02-03T05:21:43;6.17;;;3.07;;
5882;SDS011;2967;51.488;6.618;2023-02-03T05:26:45;8.40;;;2.93;;
5882;SDS011;2967;51.488;6.618;2023-02-03T05:31:48;6.20;;;3.30;;
5882;SDS011;2967;51.488;6.618;2023-02-03T05:36:52;7.63;;;3.10;;
5882;SDS011;2967;51.488;6.618;2023-02-03T05:41:54;3.80;;;2.60;;
5882;SDS011;2967;51.488;6.618;2023-02-03T05:46:58;6.50;;;3.17;;
5882;SDS011;2967;51.488;6.618;2023-02-03T05:52:02;8.93;;;3.30;;
5882;SDS011;2967;51.488;6.618;2023-02-03T05:57:05;7.47;;;3.00;;
5882;SDS011;2967;51.488;6.618;2023-02-03T06:02:07;7.60;;;3.23;;
5882;SDS011;2967;51.488;6.618;2023-02-03T06:07:11;9.70;;;2.70;;
5882;SDS011;2967;51.488;6.618;2023-02-03T06:12:14;9.07;;;3.30;;
5882;SDS011;2967;51.488;6.618;2023-02-03T06:17:17;10.10;;;3.03;;
5882;SDS011;2967;51.488;6.618;2023-02-03T06:22:21;9.37;;;3.23;;
5882;SDS011;2967;51.488;6.618;2023-02-03T06:27:23;6.27;;;2.93;;
5882;SDS011;2967;51.488;6.618;2023-02-03T06:32:26;8.93;;;3.33;;
5882;SDS011;2967;51.488;6.618;2023-02-03T06:37:30;6.77;;;2.80;;
5882;SDS011;2967;51.488;6.618;2023-02-03T06:42:33;7.67;;;3.10;;
5882;SDS011;2967;51.488;6.618;2023-02-03T06:47:38;9.30;;;2.83;;
5882;SDS011;2967;51.488;6.618;2023-02-03T06:52:42;5.60;;;2.60;;
5882;SDS011;2967;51.488;6.618;2023-02-03T06:57:45;7.23;;;3.43;;
5882;SDS011;2967;51.488;6.618;2023-02-03T07:02:51;5.80;;;2.97;;
5882;SDS011;2967;51.488;6.618;2023-02-03T07:07:56;7.67;;;2.60;;
5882;SDS011;2967;51.488;6.618;2023-02-03T07:13:02;8.63;;;2.93;;
5882;SDS011;2967;51.488;6.618;2023-02-03T07:18:06;8.83;;;2.70;;
5882;SDS011;2967;51.488;6.618;2023-02-03T07:23:09;7.20;;;3.67;;
5882;SDS011;2967;51.488;6.618;2023-02-03T07:28:13;7.80;;;2.93;;
5882;SDS011;2967;51.488;6.618;2023-02-03T07:33:15;4.70;;;2.70;;
5882;SDS011;2967;51.488;6.618;2023-02-03T07:38:19;8.10;;;2.63;;
5882;SDS011;2967;51.488;6.618;2023-02-03T07:43:22;9.23;;;2.50;;
5882;SDS011;2967;51.488;6.618;2023-02-03T07:48:25;8.47;;;2.97;;
5882;SDS011;2967;51.488;6.618;2023-02-03T07:53:29;7.23;;;3.33;;
5882;SDS011;2967;51.488;6.618;2023-02-03T07:58:32;8.87;;;2.90;;
5882;SDS011;2967;51.488;6.618;2023-02-03T08:03:35;6.47;;;2.97;;
5882;SDS011;2967;51.488;6.618;2023-02-03T08:08:39;9.70;;;2.70;;
5882;SDS011;2967;51.488;6.618;2023-02-03T08:13:42;4.20;;;2.70;;
5882;SDS011;2967;51.488;6.618;2023-02-03T08:18:44;6.17;;;2.53;;
5882;SDS011;2967;51.488;6.618;2023-02-03T08:23:48;6.70;;;2.47;;
5882;SDS011;2967;51.488;6.618;2023-02-03T08:28:51;9.10;;;2.83;;
5882;SDS011;2967;51.488;6.618;2023-02-03T08:33:53;5.73;;;3.10;;
5882;SDS011;2967;51.488;6.618;2023-02-03T08:38:57;5.90;;;2.83;;
5882;SDS011;2967;51.488;6.618;2023-02-03T08:44:00;9.27;;;2.80;;
5882;SDS011;2967;51.488;6.618;2023-02-03T08:49:03;6.47;;;2.57;;
5882;SDS011;2967;51.488;6.618;2023-02-03T08:54:07;9.50;;;2.97;;
5882;SDS011;2967;51.488;6.618;2023-02-03T08:59:10;7.03;;;3.17;;
5882;SDS011;2967;51.488;6.618;2023-02-03T09:04:13;9.83;;;3.00;;
5882;SDS011;2967;51.488;6.618;2023-02-03T09:09:20;6.20;;;2.67;;
5882;SDS011;2967;51.488;6.618;2023-02-03T09:14:24;10.03;;;2.80;;
5882;SDS011;2967;51.488;6.618;2023-02-03T09:19:27;5.97;;;2.63;;
5882;SDS011;2967;51.488;6.618;2023-02-03T09:24:31;6.63;;;2.80;;
5882;SDS011;2967;51.488;6.618;2023-02-03T09:29:33;7.63;;;2.10;;
5882;SDS011;2967;51.488;6.618;2023-02-03T09:34:36;18.07;;;3.33;;
5882;SDS011;2967;51.488;6.618;2023-02-03T09:39:41;8.40;;;3.60;;
5882;SDS011;2967;51.488;6.618;2023-02-03T09:44:46;5.03;;;2.30;;
5882;SDS011;2967;51.488;6.618;2023-02-03T09:49:54;7.17;;;3.07;;
5882;SDS011;2967;51.488;6.618;2023-02-03T09:55:02;7.90;;;3.10;;
5882;SDS011;2967;51.488;6.618;2023-02-03T10:00:12;8.30;;;2.93;;
5882;SDS011;2967;51.488;6.618;2023-02-03T10:05:19;10.63;;;3.50;;
5882;SDS011;2967;51.488;6.618;2023-02-03T10:10:30;10.83;;;2.80;;
5882;SDS011;2967;51.488;6.618;2023-02-03T10:21:10;5.13;;;2.90;;
5882;SDS011;2967;51.488;6.618;2023-02-03T10:26:18;8.03;;;3.43;;
5882;SDS011;2967;51.488;6.618;2023-02-03T10:31:26;10.50;;;3.80;;
5882;SDS011;2967;51.488;6.618;2023-02-03T10:36:31;10.50;;;2.77;;
5882;SDS011;2967;51.488;6.618;2023-02-03T10:41:45;8.90;;;3.43;;
5882;SDS011;2967;51.488;6.618;2023-02-03T10:46:48;17.53;;;3.53;;
5882;SDS011;2967;51.488;6.618;2023-02-03T10:51:51;6.20;;;2.90;;
5882;SDS011;2967;51.488;6.618;2023-02-03T10:57:02;7.90;;;3.90;;
5882;SDS011;2967;51.488;6.618;2023-02-03T11:02:08;10.23;;;3.43;;
5882;SDS011;2967;51.488;6.618;2023-02-03T11:07:22;12.10;;;3.43;;
5882;SDS011;2967;51.488;6.618;2023-02-03T11:12:26;10.00;;;3.50;;
5882;SDS011;2967;51.488;6.618;2023-02-03T11:17:29;11.23;;;3.13;;
5882;SDS011;2967;51.488;6.618;2023-02-03T11:22:34;9.27;;;3.83;;
5882;SDS011;2967;51.488;6.618;2023-02-03T11:27:40;13.80;;;4.00;;
5882;SDS011;2967;51.488;6.618;2023-02-03T11:32:43;16.23;;;3.60;;
5882;SDS011;2967;51.488;6.618;2023-02-03T11:37:49;8.10;;;3.10;;
5882;SDS011;2967;51.488;6.618;2023-02-03T11:42:59;15.70;;;3.80;;
5882;SDS011;2967;51.488;6.618;2023-02-03T11:48:06;6.70;;;3.27;;
5882;SDS011;2967;51.488;6.618;2023-02-03T11:53:21;6.37;;;3.60;;
5882;SDS011;2967;51.488;6.618;2023-02-03T12:04:12;12.60;;;3.93;;
5882;SDS011;2967;51.488;6.618;2023-02-03T12:09:27;8.70;;;3.50;;
5882;SDS011;2967;51.488;6.618;2023-02-03T12:14:46;8.73;;;3.80;;
5882;SDS011;2967;51.488;6.618;2023-02-03T12:20:01;11.13;;;3.60;;
5882;SDS011;2967;51.488;6.618;2023-02-03T12:25:13;9.53;;;4.10;;
5882;SDS011;2967;51.488;6.618;2023-02-03T12:30:28;11.20;;;3.43;;
5882;SDS011;2967;51.488;6.618;2023-02-03T12:35:37;12.00;;;3.00;;
5882;SDS011;2967;51.488;6.618;2023-02-03T12:40:47;7.97;;;2.83;;
5882;SDS011;2967;51.488;6.618;2023-02-03T12:45:59;9.37;;;3.43;;
5882;SDS011;2967;51.488;6.618;2023-02-03T12:51:09;35.33;;;10.10;;
5882;SDS011;2967;51.488;6.618;2023-02-03T12:56:17;7.63;;;3.40;;
5882;SDS011;2967;51.488;6.618;2023-02-03T13:01:26;10.00;;;3.43;;
5882;SDS011;2967;51.488;6.618;2023-02-03T13:06:38;10.27;;;3.70;;
5882;SDS011;2967;51.488;6.618;2023-02-03T13:11:50;11.23;;;3.67;;
5882;SDS011;2967;51.488;6.618;2023-02-03T13:17:02;8.83;;;3.30;;
5882;SDS011;2967;51.488;6.618;2023-02-03T13:22:10;6.97;;;3.10;;
5882;SDS011;2967;51.488;6.618;2023-02-03T13:27:20;10.73;;;3.17;;
5882;SDS011;2967;51.488;6.618;2023-02-03T13:32:40;8.40;;;3.40;;
5882;SDS011;2967;51.488;6.618;2023-02-03T13:37:59;10.47;;;3.37;;
5882;SDS011;2967;51.488;6.618;2023-02-03T13:43:22;9.27;;;3.33;;
5882;SDS011;2967;51.488;6.618;2023-02-03T13:48:42;13.23;;;4.53;;
5882;SDS011;2967;51.488;6.618;2023-02-03T13:53:47;5.80;;;2.90;;
5882;SDS011;2967;51.488;6.618;2023-02-03T13:58:57;9.73;;;3.80;;
5882;SDS011;2967;51.488;6.618;2023-02-03T14:04:03;9.73;;;3.47;;
5882;SDS011;2967;51.488;6.618;2023-02-03T14:09:18;8.13;;;3.10;;
5882;SDS011;2967;51.488;6.618;2023-02-03T14:14:43;8.37;;;3.03;;
5882;SDS011;2967;51.488;6.618;2023-02-03T14:20:31;9.80;;;2.90;;
5882;SDS011;2967;51.488;6.618;2023-02-03T14:25:53;13.97;;;2.50;;
5882;SDS011;2967;51.488;6.618;2023-02-03T14:31:04;15.93;;;3.77;;
5882;SDS011;2967;51.488;6.618;2023-02-03T14:36:25;18.40;;;3.20;;
5882;SDS011;2967;51.488;6.618;2023-02-03T14:41:34;15.93;;;3.37;;
5882;SDS011;2967;51.488;6.618;2023-02-03T14:46:51;14.23;;;3.80;;
5882;SDS011;2967;51.488;6.618;2023-02-03T14:52:09;12.33;;;3.20;;
5882;SDS011;2967;51.488;6.618;2023-02-03T14:57:27;9.70;;;3.73;;
5882;SDS011;2967;51.488;6.618;2023-02-03T15:02:39;14.00;;;3.47;;
5882;SDS011;2967;51.488;6.618;2023-02-03T15:08:31;11.93;;;3.20;;
5882;SDS011;2967;51.488;6.618;2023-02-03T15:13:41;13.03;;;6.00;;
5882;SDS011;2967;51.488;6.618;2023-02-03T15:18:44;11.67;;;3.70;;
5882;SDS011;2967;51.488;6.618;2023-02-03T15:23:48;6.37;;;3.10;;
5882;SDS011;2967;51.488;6.618;2023-02-03T15:28:52;11.47;;;3.70;;
5882;SDS011;2967;51.488;6.618;2023-02-03T15:33:56;15.77;;;4.40;;
5882;SDS011;2967;51.488;6.618;2023-02-03T15:39:04;13.30;;;4.30;;
5882;SDS011;2967;51.488;6.618;2023-02-03T15:44:17;16.70;;;4.53;;
5882;SDS011;2967;51.488;6.618;2023-02-03T15:49:26;16.57;;;4.20;;
5882;SDS011;2967;51.488;6.618;2023-02-03T15:54:33;13.50;;;3.70;;
5882;SDS011;2967;51.488;6.618;2023-02-03T15:59:41;11.50;;;3.17;;
5882;SDS011;2967;51.488;6.618;2023-02-03T16:04:47;23.87;;;5.40;;
5882;SDS011;2967;51.488;6.618;2023-02-03T16:09:52;15.83;;;4.00;;
5882;SDS011;2967;51.488;6.618;2023-02-03T16:14:57;17.43;;;4.83;;
5882;SDS011;2967;51.488;6.618;2023-02-03T16:20:17;16.40;;;3.77;;
5882;SDS011;2967;51.488;6.618;2023-02-03T16:25:24;18.30;;;3.87;;
5882;SDS011;2967;51.488;6.618;2023-02-03T16:30:29;10.00;;;3.50;;
5882;SDS011;2967;51.488;6.618;2023-02-03T16:35:50;12.70;;;3.73;;
5882;SDS011;2967;51.488;6.618;2023-02-03T16:41:13;18.23;;;3.80;;
5882;SDS011;2967;51.488;6.618;2023-02-03T16:46:36;14.37;;;3.90;;
5882;SDS011;2967;51.488;6.618;2023-02-03T16:51:56;16.30;;;4.17;;
5882;SDS011;2967;51.488;6.618;2023-02-03T16:57:00;11.47;;;4.00;;
5882;SDS011;2967;51.488;6.618;2023-02-03T17:02:03;12.97;;;4.30;;
5882;SDS011;2967;51.488;6.618;2023-02-03T17:07:05;24.30;;;4.20;;
5882;SDS011;2967;51.488;6.618;2023-02-03T17:12:10;15.43;;;4.73;;
5882;SDS011;2967;51.488;6.618;2023-02-03T17:17:13;21.90;;;3.97;;
5882;SDS011;2967;51.488;6.618;2023-02-03T17:22:16;17.63;;;3.60;;
5882;SDS011;2967;51.488;6.618;2023-02-03T17:27:20;25.73;;;4.70;;
5882;SDS011;2967;51.488;6.618;2023-02-03T17:32:22;17.33;;;4.00;;
5882;SDS011;2967;51.488;6.618;2023-02-03T17:37:25;24.00;;;5.40;;
5882;SDS011;2967;51.488;6.618;2023-02-03T17:42:29;18.07;;;4.03;;
5882;SDS011;2967;51.488;6.618;2023-02-03T17:47:50;14.77;;;3.47;;
5882;SDS011;2967;51.488;6.618;2023-02-03T17:53:11;21.40;;;4.47;;
5882;SDS011;2967;51.488;6.618;2023-02-03T17:58:16;18.80;;;4.20;;
5882;SDS011;2967;51.488;6.618;2023-02-03T18:03:19;21.53;;;4.00;;
5882;SDS011;2967;51.488;6.618;2023-02-03T18:08:22;15.10;;;4.10;;
5882;SDS011;2967;51.488;6.618;2023-02-03T18:13:27;19.17;;;4.60;;
5882;SDS011;2967;51.488;6.618;2023-02-03T18:18:33;16.83;;;4.30;;
5882;SDS011;2967;51.488;6.618;2023-02-03T18:23:36;20.47;;;5.13;;
5882;SDS011;2967;51.488;6.618;2023-02-03T18:28:40;11.13;;;4.00;;
5882;SDS011;2967;51.488;6.618;2023-02-03T18:33:44;15.13;;;4.13;;
5882;SDS011;2967;51.488;6.618;2023-02-03T18:38:47;21.37;;;5.87;;
5882;SDS011;2967;51.488;6.618;2023-02-03T18:43:51;24.47;;;4.63;;
5882;SDS011;2967;51.488;6.618;2023-02-03T18:48:54;24.60;;;5.73;;
5882;SDS011;2967;51.488;6.618;2023-02-03T18:53:57;20.97;;;3.97;;
5882;SDS011;2967;51.488;6.618;2023-02-03T18:59:05;26.53;;;4.73;;
5882;SDS011;2967;51.488;6.618;2023-02-03T19:04:09;17.03;;;4.53;;
5882;SDS011;2967;51.488;6.618;2023-02-03T19:09:14;21.73;;;5.40;;
5882;SDS011;2967;51.488;6.618;2023-02-03T19:14:19;24.73;;;4.90;;
5882;SDS011;2967;51.488;6.618;2023-02-03T19:19:23;34.93;;;5.30;;
5882;SDS011;2967;51.488;6.618;2023-02-03T19:24:26;24.43;;;5.83;;
5882;SDS011;2967;51.488;6.618;2023-02-03T19:29:30;20.10;;;5.57;;
5882;SDS011;2967;51.488;6.618;2023-02-03T19:34:32;21.20;;;5.50;;
5882;SDS011;2967;51.488;6.618;2023-02-03T19:39:35;23.50;;;4.53;;
5882;SDS011;2967;51.488;6.618;2023-02-03T19:44:40;17.53;;;5.17;;
5882;SDS011;2967;51.488;6.618;2023-02-03T19:49:42;16.43;;;5.00;;
5882;SDS011;2967;51.488;6.618;2023-02-03T19:54:45;13.53;;;4.57;;
5882;SDS011;2967;51.488;6.618;2023-02-03T19:59:49;25.63;;;4.03;;
5882;SDS011;2967;51.488;6.618;2023-02-03T20:04:53;22.67;;;5.03;;
5882;SDS011;2967;51.488;6.618;2023-02-03T20:10:08;15.80;;;4.23;;
5882;SDS011;2967;51.488;6.618;2023-02-03T20:15:12;22.80;;;4.47;;
5882;SDS011;2967;51.488;6.618;2023-02-03T20:20:15;18.43;;;4.40;;
5882;SDS011;2967;51.488;6.618;2023-02-03T20:25:27;23.40;;;4.90;;
5882;SDS011;2967;51.488;6.618;2023-02-03T20:30:31;17.70;;;4.07;;
5882;SDS011;2967;51.488;6.618;2023-02-03T20:35:34;20.60;;;5.30;;
5882;SDS011;2967;51.488;6.618;2023-02-03T20:40:38;17.03;;;4.07;;
5882;SDS011;2967;51.488;6.618;2023-02-03T20:45:43;18.83;;;3.90;;
5882;SDS011;2967;51.488;6.618;2023-02-03T20:50:47;13.83;;;3.90;;
5882;SDS011;2967;51.488;6.618;2023-02-03T20:55:51;26.23;;;5.47;;
5882;SDS011;2967;51.488;6.618;2023-02-03T21:01:00;21.97;;;5.37;;
5882;SDS011;2967;51.488;6.618;2023-02-03T21:06:08;17.30;;;4.90;;
5882;SDS011;2967;51.488;6.618;2023-02-03T21:11:15;17.90;;;4.50;;
5882;SDS011;2967;51.488;6.618;2023-02-03T21:16:21;19.37;;;5.17;;
5882;SDS011;2967;51.488;6.618;2023-02-03T21:21:28;21.33;;;5.33;;
5882;SDS011;2967;51.488;6.618;2023-02-03T21:26:35;20.33;;;4.40;;
5882;SDS011;2967;51.488;6.618;2023-02-03T21:31:40;26.40;;;4.57;;
5882;SDS011;2967;51.488;6.618;2023-02-03T21:36:46;29.23;;;5.13;;
5882;SDS011;2967;51.488;6.618;2023-02-03T21:41:48;21.70;;;5.10;;
5882;SDS011;2967;51.488;6.618;2023-02-03T21:46:52;25.33;;;4.93;;
5882;SDS011;2967;51.488;6.618;2023-02-03T21:51:55;24.27;;;4.93;;
5882;SDS011;2967;51.488;6.618;2023-02-03T21:56:58;22.80;;;5.40;;
5882;SDS011;2967;51.488;6.618;2023-02-03T22:02:12;26.73;;;5.53;;
5882;SDS011;2967;51.488;6.618;2023-02-03T22:07:37;28.10;;;4.93;;
5882;SDS011;2967;51.488;6.618;2023-02-03T22:12:40;29.23;;;5.57;;
5882;SDS011;2967;51.488;6.618;2023-02-03T22:17:43;28.97;;;4.60;;
5882;SDS011;2967;51.488;6.618;2023-02-03T22:22:48;23.57;;;4.77;;
5882;SDS011;2967;51.488;6.618;2023-02-03T22:27:50;20.10;;;5.43;;
5882;SDS011;2967;51.488;6.618;2023-02-03T22:32:54;25.90;;;5.20;;
5882;SDS011;2967;51.488;6.618;2023-02-03T22:37:58;18.67;;;4.73;;
5882;SDS011;2967;51.488;6.618;2023-02-03T22:43:00;19.70;;;5.10;;
5882;SDS011;2967;51.488;6.618;2023-02-03T22:48:05;16.63;;;5.87;;
5882;SDS011;2967;51.488;6.618;2023-02-03T22:53:07;19.13;;;5.03;;
5882;SDS011;2967;51.488;6.618;2023-02-03T22:58:10;18.63;;;4.23;;
5882;SDS011;2967;51.488;6.618;2023-02-03T23:03:14;33.27;;;4.30;;
5882;SDS011;2967;51.488;6.618;2023-02-03T23:08:17;19.27;;;5.10;;
5882;SDS011;2967;51.488;6.618;2023-02-03T23:13:20;13.90;;;3.70;;
5882;SDS011;2967;51.488;6.618;2023-02-03T23:18:24;22.67;;;4.37;;
5882;SDS011;2967;51.488;6.618;2023-02-03T23:23:26;21.87;;;4.90;;
5882;SDS011;2967;51.488;6.618;2023-02-03T23:28:29;23.47;;;4.40;;
5882;SDS011;2967;51.488;6.618;2023-02-03T23:33:33;16.70;;;3.97;;
5882;SDS011;2967;51.488;6.618;2023-02-03T23:38:36;18.30;;;4.03;;
5882;SDS011;2967;51.488;6.618;2023-02-03T23:43:38;16.77;;;4.60;;
5882;SDS011;2967;51.488;6.618;2023-02-03T23:48:42;26.93;;;4.93;;
5882;SDS011;2967;51.488;6.618;2023-02-03T23:53:45;23.57;;;5.40;;
5882;SDS011;2967;51.488;6.618;2023-02-03T23:58:47;20.70;;;4.77;;
